createdAt,value
2023-09-17T00:01:02.398Z,95511
2023-09-17T00:02:12.145Z,95513
2023-09-17T00:03:20.801Z,95512
2023-09-17T00:04:29.427Z,95514
2023-09-17T00:05:39.118Z,95514
2023-09-17T00:06:46.805Z,95510
2023-09-17T00:07:55.491Z,95515
2023-09-17T00:09:04.197Z,95510
2023-09-17T00:10:12.875Z,95516
2023-09-17T00:11:22.689Z,95509
2023-09-17T00:12:31.335Z,95509
2023-09-17T00:13:42.040Z,95512
2023-09-17T00:14:51.688Z,95511
2023-09-17T00:16:00.395Z,95513
2023-09-17T00:17:10.064Z,95513
2023-09-17T00:18:18.731Z,95520
2023-09-17T00:19:28.452Z,95516
2023-09-17T00:20:38.094Z,95522
2023-09-17T00:21:46.782Z,95523
2023-09-17T00:22:55.455Z,95521
2023-09-17T00:24:05.143Z,95521
2023-09-17T00:25:13.832Z,95519
2023-09-17T00:26:22.531Z,95520
2023-09-17T00:27:32.244Z,95516
2023-09-17T00:28:41.920Z,95516
2023-09-17T00:29:51.540Z,95514
2023-09-17T00:30:58.251Z,95513
2023-09-17T00:32:07.956Z,95513
2023-09-17T00:33:17.659Z,95513
2023-09-17T00:34:25.398Z,95511
2023-09-17T00:35:35.052Z,95515
2023-09-17T00:36:43.694Z,95508
2023-09-17T00:37:52.365Z,95508
2023-09-17T00:39:02.093Z,95507
2023-09-17T00:40:11.775Z,95504
2023-09-17T00:41:20.432Z,95504
2023-09-17T00:42:30.094Z,95508
2023-09-17T00:43:38.838Z,95508
2023-09-17T00:44:48.521Z,95508
2023-09-17T00:45:57.220Z,95507
2023-09-17T00:47:06.891Z,95510
2023-09-17T00:48:16.630Z,95515
2023-09-17T00:49:24.340Z,95511
2023-09-17T00:50:33.972Z,95512
2023-09-17T00:51:43.639Z,95514
2023-09-17T00:52:52.380Z,95513
2023-09-17T00:54:00.072Z,95511
2023-09-17T00:55:08.771Z,95514
2023-09-17T00:56:18.471Z,95514
2023-09-17T00:57:28.102Z,95515
2023-09-17T00:58:35.811Z,95513
2023-09-17T00:59:44.549Z,95512
2023-09-17T01:00:54.209Z,95518
2023-09-17T01:02:02.954Z,95515
2023-09-17T01:03:11.632Z,95515
2023-09-17T01:04:20.330Z,95520
2023-09-17T01:05:28.983Z,95522
2023-09-17T01:06:38.747Z,95520
2023-09-17T01:07:47.538Z,95518
2023-09-17T01:08:57.110Z,95522
2023-09-17T01:10:07.353Z,95524
2023-09-17T01:11:17.004Z,95520
2023-09-17T01:12:26.691Z,95522
2023-09-17T01:13:34.405Z,95521
2023-09-17T01:14:43.109Z,95519
2023-09-17T01:15:52.810Z,95515
2023-09-17T01:17:02.450Z,95514
2023-09-17T01:18:12.341Z,95516
2023-09-17T01:19:20.035Z,95512
2023-09-17T01:20:29.663Z,95513
2023-09-17T01:21:39.334Z,95513
2023-09-17T01:22:48.135Z,95516
2023-09-17T01:23:56.792Z,95518
2023-09-17T01:25:06.452Z,95518
2023-09-17T01:26:15.151Z,95516
2023-09-17T01:27:24.844Z,95516
2023-09-17T01:28:33.570Z,95512
2023-09-17T01:29:42.263Z,95518
2023-09-17T01:30:52.033Z,95510
2023-09-17T01:32:01.763Z,95512
2023-09-17T01:33:10.462Z,95515
2023-09-17T01:34:20.178Z,95514
2023-09-17T01:35:28.927Z,95512
2023-09-17T01:36:38.726Z,95514
2023-09-17T01:37:46.468Z,95505
2023-09-17T01:38:56.103Z,95512
2023-09-17T01:40:05.779Z,95513
2023-09-17T01:41:14.452Z,95514
2023-09-17T01:42:24.165Z,95518
2023-09-17T01:43:33.891Z,95517
2023-09-17T01:44:43.543Z,95513
2023-09-17T01:45:53.238Z,95515
2023-09-17T01:47:00.909Z,95514
2023-09-17T01:48:09.595Z,95512
2023-09-17T01:49:19.240Z,95517
2023-09-17T01:50:28.884Z,95515
2023-09-17T01:51:38.534Z,95516
2023-09-17T01:52:48.226Z,95515
2023-09-17T01:53:56.927Z,95519
2023-09-17T01:55:06.636Z,95520
2023-09-17T01:56:16.302Z,95517
2023-09-17T01:57:24.995Z,95515
2023-09-17T01:58:34.701Z,95516
2023-09-17T01:59:42.335Z,95514
2023-09-17T02:00:51.002Z,95511
2023-09-17T02:02:00.867Z,95509
2023-09-17T02:03:10.603Z,95516
2023-09-17T02:04:20.258Z,95514
2023-09-17T02:05:29.880Z,95519
2023-09-17T02:06:38.536Z,95515
2023-09-17T02:07:48.360Z,95516
2023-09-17T02:08:57.065Z,95514
2023-09-17T02:10:06.853Z,95510
2023-09-17T02:11:16.601Z,95510
2023-09-17T02:12:25.357Z,95509
2023-09-17T02:13:35.071Z,95511
2023-09-17T02:14:42.709Z,95505
2023-09-17T02:15:52.449Z,95506
2023-09-17T02:17:02.167Z,95504
2023-09-17T02:18:10.862Z,95500
2023-09-17T02:19:19.640Z,95507
2023-09-17T02:20:28.317Z,95513
2023-09-17T02:21:36.991Z,95513
2023-09-17T02:22:46.711Z,95509
2023-09-17T02:23:54.348Z,95511
2023-09-17T02:25:04.052Z,95511
2023-09-17T02:26:14.739Z,95510
2023-09-17T02:27:22.405Z,95513
2023-09-17T02:28:32.094Z,95514
2023-09-17T02:29:40.794Z,95516
2023-09-17T02:30:50.436Z,95521
2023-09-17T02:32:00.190Z,95518
2023-09-17T02:33:07.815Z,95521
2023-09-17T02:34:17.461Z,95525
2023-09-17T02:35:27.154Z,95518
2023-09-17T02:36:36.889Z,95523
2023-09-17T02:37:45.539Z,95524
2023-09-17T02:38:55.205Z,95526
2023-09-17T02:40:04.952Z,95528
2023-09-17T02:41:14.665Z,95523
2023-09-17T02:42:24.324Z,95523
2023-09-17T02:43:33.044Z,95520
2023-09-17T02:44:42.655Z,95518
2023-09-17T02:45:50.357Z,95517
2023-09-17T02:46:59.125Z,95516
2023-09-17T02:48:07.765Z,95519
2023-09-17T02:49:17.384Z,95518
2023-09-17T02:50:27.071Z,95520
2023-09-17T02:51:35.804Z,95515
2023-09-17T02:52:45.532Z,95514
2023-09-17T02:53:55.117Z,95520
2023-09-17T02:55:03.829Z,95526
2023-09-17T02:56:13.482Z,95525
2023-09-17T02:57:22.168Z,95525
2023-09-17T02:58:31.885Z,95528
2023-09-17T02:59:41.535Z,95526
2023-09-17T03:00:49.240Z,95527
2023-09-17T03:01:56.959Z,95530
2023-09-17T03:03:06.614Z,95533
2023-09-17T03:04:15.272Z,95533
2023-09-17T03:05:24.913Z,95534
2023-09-17T03:06:32.572Z,95538
2023-09-17T03:07:41.279Z,95535
2023-09-17T03:08:50.026Z,95537
2023-09-17T03:09:59.661Z,95540
2023-09-17T03:11:09.311Z,95539
2023-09-17T03:12:17.998Z,95543
2023-09-17T03:13:27.720Z,95541
2023-09-17T03:14:37.356Z,95540
2023-09-17T03:15:46.025Z,95543
2023-09-17T03:16:54.748Z,95542
2023-09-17T03:18:03.629Z,95542
2023-09-17T03:19:11.274Z,95540
2023-09-17T03:20:20.989Z,95543
2023-09-17T03:21:29.664Z,95541
2023-09-17T03:22:39.370Z,95539
2023-09-17T03:23:49.221Z,95541
2023-09-17T03:25:04.169Z,95537
2023-09-17T03:26:07.365Z,95536
2023-09-17T03:27:16.019Z,95539
2023-09-17T03:28:24.803Z,95541
2023-09-17T03:29:34.438Z,95543
2023-09-17T03:30:43.066Z,95542
2023-09-17T03:31:51.738Z,95548
2023-09-17T03:33:04.750Z,95544
2023-09-17T03:34:11.127Z,95543
2023-09-17T03:35:19.751Z,95548
2023-09-17T03:36:29.417Z,95552
2023-09-17T03:37:39.204Z,95549
2023-09-17T03:38:48.773Z,95551
2023-09-17T03:39:56.458Z,95556
2023-09-17T03:41:06.141Z,95558
2023-09-17T03:42:15.772Z,95554
2023-09-17T03:43:25.478Z,95550
2023-09-17T03:44:34.131Z,95552
2023-09-17T03:45:42.826Z,95551
2023-09-17T03:46:51.563Z,95551
2023-09-17T03:48:01.222Z,95553
2023-09-17T03:49:09.960Z,95547
2023-09-17T03:50:21.415Z,95548
2023-09-17T03:51:29.469Z,95548
2023-09-17T03:52:39.193Z,95548
2023-09-17T03:53:49.150Z,95551
2023-09-17T03:54:57.462Z,95547
2023-09-17T03:56:07.149Z,95548
2023-09-17T03:57:16.877Z,95550
2023-09-17T03:58:25.548Z,95547
2023-09-17T03:59:34.173Z,95542
2023-09-17T04:00:43.882Z,95542
2023-09-17T04:01:52.686Z,95544
2023-09-17T04:03:02.383Z,95540
2023-09-17T04:04:11.108Z,95540
2023-09-17T04:05:19.769Z,95537
2023-09-17T04:06:29.431Z,95541
2023-09-17T04:07:38.168Z,95542
2023-09-17T04:08:46.745Z,95542
2023-09-17T04:09:56.419Z,95543
2023-09-17T04:11:05.082Z,95544
2023-09-17T04:12:13.793Z,95546
2023-09-17T04:13:23.559Z,95548
2023-09-17T04:14:32.177Z,95555
2023-09-17T04:15:41.872Z,95554
2023-09-17T04:16:50.580Z,95558
2023-09-17T04:18:00.254Z,95558
2023-09-17T04:19:09.909Z,95554
2023-09-17T04:20:18.576Z,95559
2023-09-17T04:21:27.250Z,95557
2023-09-17T04:22:36.961Z,95558
2023-09-17T04:23:45.663Z,95556
2023-09-17T04:24:55.314Z,95562
2023-09-17T04:26:05.002Z,95559
2023-09-17T04:27:13.714Z,95555
2023-09-17T04:28:22.416Z,95558
2023-09-17T04:29:31.111Z,95561
2023-09-17T04:30:39.771Z,95560
2023-09-17T04:31:48.495Z,95556
2023-09-17T04:32:58.115Z,95557
2023-09-17T04:34:07.792Z,95556
2023-09-17T04:35:16.498Z,95559
2023-09-17T04:36:26.174Z,95562
2023-09-17T04:37:35.847Z,95559
2023-09-17T04:38:44.505Z,95562
2023-09-17T04:39:54.219Z,95564
2023-09-17T04:41:03.906Z,95568
2023-09-17T04:42:11.556Z,95566
2023-09-17T04:43:21.275Z,95571
2023-09-17T04:44:29.932Z,95567
2023-09-17T04:45:39.778Z,95570
2023-09-17T04:46:49.318Z,95568
2023-09-17T04:47:58.944Z,95569
2023-09-17T04:49:08.609Z,95567
2023-09-17T04:50:18.273Z,95569
2023-09-17T04:51:26.982Z,95562
2023-09-17T04:52:36.754Z,95568
2023-09-17T04:53:46.395Z,95571
2023-09-17T04:54:55.148Z,95570
2023-09-17T04:56:05.826Z,95570
2023-09-17T04:57:15.562Z,95572
2023-09-17T04:58:24.303Z,95574
2023-09-17T04:59:32.906Z,95576
2023-09-17T05:00:41.563Z,95571
2023-09-17T05:01:51.291Z,95566
2023-09-17T05:03:00.908Z,95565
2023-09-17T05:04:10.568Z,95568
2023-09-17T05:05:19.417Z,95570
2023-09-17T05:06:29.966Z,95569
2023-09-17T05:07:39.707Z,95568
2023-09-17T05:08:48.587Z,95567
2023-09-17T05:09:57.036Z,95566
2023-09-17T05:11:06.713Z,95565
2023-09-17T05:12:15.385Z,95570
2023-09-17T05:13:25.066Z,95567
2023-09-17T05:14:32.708Z,95571
2023-09-17T05:15:41.357Z,95571
2023-09-17T05:16:51.026Z,95569
2023-09-17T05:17:58.795Z,95571
2023-09-17T05:19:07.377Z,95568
2023-09-17T05:20:16.084Z,95577
2023-09-17T05:21:24.781Z,95573
2023-09-17T05:22:34.471Z,95576
2023-09-17T05:23:43.090Z,95583
2023-09-17T05:24:51.750Z,95577
2023-09-17T05:26:01.672Z,95582
2023-09-17T05:27:10.404Z,95580
2023-09-17T05:28:19.166Z,95585
2023-09-17T05:29:28.840Z,95587
2023-09-17T05:30:38.466Z,95585
2023-09-17T05:31:48.149Z,95589
2023-09-17T05:32:56.792Z,95586
2023-09-17T05:34:06.521Z,95589
2023-09-17T05:35:16.129Z,95593
2023-09-17T05:36:23.795Z,95588
2023-09-17T05:37:32.658Z,95589
2023-09-17T05:38:42.164Z,95587
2023-09-17T05:39:50.857Z,95587
2023-09-17T05:41:00.576Z,95591
2023-09-17T05:42:08.195Z,95591
2023-09-17T05:43:16.942Z,95592
2023-09-17T05:44:26.601Z,95597
2023-09-17T05:45:35.289Z,95599
2023-09-17T05:46:43.946Z,95596
2023-09-17T05:47:52.640Z,95597
2023-09-17T05:49:01.313Z,95595
2023-09-17T05:50:11.038Z,95596
2023-09-17T05:51:20.719Z,95601
2023-09-17T05:52:30.402Z,95603
2023-09-17T05:53:40.038Z,95596
2023-09-17T05:54:48.706Z,95600
2023-09-17T05:55:57.419Z,95600
2023-09-17T05:57:07.093Z,95599
2023-09-17T05:58:16.761Z,95603
2023-09-17T05:59:26.423Z,95604
2023-09-17T06:00:36.126Z,95603
2023-09-17T06:01:44.839Z,95609
2023-09-17T06:02:54.504Z,95604
2023-09-17T06:04:02.153Z,95608
2023-09-17T06:05:10.787Z,95605
2023-09-17T06:06:19.512Z,95609
2023-09-17T06:07:29.149Z,95610
2023-09-17T06:08:38.820Z,95614
2023-09-17T06:09:47.454Z,95616
2023-09-17T06:10:57.180Z,95623
2023-09-17T06:12:06.906Z,95631
2023-09-17T06:13:15.558Z,95641
2023-09-17T06:14:25.255Z,95648
2023-09-17T06:15:34.929Z,95645
2023-09-17T06:16:56.243Z,95647
2023-09-17T06:17:54.278Z,95644
2023-09-17T06:19:01.895Z,95645
2023-09-17T06:20:10.556Z,95639
2023-09-17T06:21:20.220Z,95641
2023-09-17T06:22:30.076Z,95640
2023-09-17T06:23:39.710Z,95629
2023-09-17T06:24:49.385Z,95632
2023-09-17T06:25:58.135Z,95625
2023-09-17T06:27:07.721Z,95620
2023-09-17T06:28:15.429Z,95621
2023-09-17T06:29:25.132Z,95624
2023-09-17T06:30:44.311Z,95628
2023-09-17T06:31:53.150Z,95625
2023-09-17T06:33:01.665Z,95628
2023-09-17T06:34:11.358Z,95627
2023-09-17T06:35:20.065Z,95625
2023-09-17T06:36:29.768Z,95627
2023-09-17T06:37:39.519Z,95628
2023-09-17T06:38:49.157Z,95629
2023-09-17T06:39:58.902Z,95633
2023-09-17T06:41:08.599Z,95637
2023-09-17T06:42:17.274Z,95636
2023-09-17T06:43:26.978Z,95633
2023-09-17T06:44:35.723Z,95640
2023-09-17T06:45:44.474Z,95639
2023-09-17T06:46:54.309Z,95637
2023-09-17T06:48:02.982Z,95635
2023-09-17T06:49:12.647Z,95633
2023-09-17T06:50:22.420Z,95639
2023-09-17T06:51:31.150Z,95640
2023-09-17T06:52:40.968Z,95635
2023-09-17T06:53:49.904Z,95635
2023-09-17T06:54:59.393Z,95638
2023-09-17T06:56:09.111Z,95637
2023-09-17T06:57:17.799Z,95639
2023-09-17T06:58:28.593Z,95640
2023-09-17T06:59:37.218Z,95638
2023-09-17T07:00:46.936Z,95640
2023-09-17T07:01:56.744Z,95638
2023-09-17T07:03:05.473Z,95638
2023-09-17T07:04:15.203Z,95631
2023-09-17T07:05:23.920Z,95636
2023-09-17T07:06:32.563Z,95635
2023-09-17T07:07:42.300Z,95639
2023-09-17T07:08:50.994Z,95639
2023-09-17T07:10:00.772Z,95637
2023-09-17T07:11:10.440Z,95641
2023-09-17T07:12:20.136Z,95640
2023-09-17T07:13:29.833Z,95641
2023-09-17T07:14:39.528Z,95640
2023-09-17T07:15:49.219Z,95638
2023-09-17T07:16:59.941Z,95641
2023-09-17T07:18:06.569Z,95642
2023-09-17T07:19:15.202Z,95643
2023-09-17T07:20:23.901Z,95649
2023-09-17T07:21:33.586Z,95646
2023-09-17T07:22:43.314Z,95651
2023-09-17T07:23:52.227Z,95652
2023-09-17T07:25:00.600Z,95653
2023-09-17T07:26:10.345Z,95655
2023-09-17T07:27:19.976Z,95658
2023-09-17T07:28:30.650Z,95660
2023-09-17T07:29:39.346Z,95666
2023-09-17T07:30:48.056Z,95664
2023-09-17T07:31:57.747Z,95664
2023-09-17T07:33:05.500Z,95667
2023-09-17T07:34:14.150Z,95662
2023-09-17T07:35:23.841Z,95654
2023-09-17T07:36:31.528Z,95657
2023-09-17T07:37:50.400Z,95658
2023-09-17T07:38:51.900Z,95656
2023-09-17T07:40:00.605Z,95656
2023-09-17T07:41:10.329Z,95655
2023-09-17T07:42:20.035Z,95659
2023-09-17T07:43:29.704Z,95658
2023-09-17T07:44:39.402Z,95659
2023-09-17T07:45:47.132Z,95660
2023-09-17T07:46:56.916Z,95655
2023-09-17T07:48:05.619Z,95655
2023-09-17T07:49:17.114Z,95654
2023-09-17T07:50:26.818Z,95652
2023-09-17T07:51:35.547Z,95656
2023-09-17T07:52:45.243Z,95659
2023-09-17T07:53:55.052Z,95663
2023-09-17T07:55:04.705Z,95661
2023-09-17T07:56:15.967Z,95664
2023-09-17T07:57:25.224Z,95665
2023-09-17T07:58:34.925Z,95661
2023-09-17T07:59:44.579Z,95664
2023-09-17T08:00:53.306Z,95667
2023-09-17T08:02:02.147Z,95667
2023-09-17T08:03:11.810Z,95672
2023-09-17T08:04:21.479Z,95669
2023-09-17T08:05:31.146Z,95669
2023-09-17T08:06:40.863Z,95676
2023-09-17T08:07:49.549Z,95675
2023-09-17T08:08:59.254Z,95676
2023-09-17T08:10:08.986Z,95678
2023-09-17T08:11:17.664Z,95675
2023-09-17T08:12:27.514Z,95679
2023-09-17T08:13:35.220Z,95679
2023-09-17T08:14:44.904Z,95676
2023-09-17T08:15:54.582Z,95674
2023-09-17T08:17:03.456Z,95678
2023-09-17T08:18:12.987Z,95680
2023-09-17T08:19:22.700Z,95678
2023-09-17T08:20:33.398Z,95678
2023-09-17T08:21:43.051Z,95677
2023-09-17T08:22:50.796Z,95682
2023-09-17T08:23:59.482Z,95680
2023-09-17T08:25:08.195Z,95677
2023-09-17T08:26:16.878Z,95677
2023-09-17T08:27:26.598Z,95680
2023-09-17T08:28:36.315Z,95679
2023-09-17T08:29:44.965Z,95678
2023-09-17T08:30:55.665Z,95677
2023-09-17T08:32:03.336Z,95680
2023-09-17T08:33:12.030Z,95682
2023-09-17T08:34:22.682Z,95676
2023-09-17T08:35:30.494Z,95679
2023-09-17T08:36:40.267Z,95677
2023-09-17T08:37:48.945Z,95675
2023-09-17T08:38:57.670Z,95680
2023-09-17T08:40:07.357Z,95673
2023-09-17T08:41:16.049Z,95678
2023-09-17T08:42:24.731Z,95678
2023-09-17T08:43:34.458Z,95681
2023-09-17T08:44:43.161Z,95678
2023-09-17T08:45:52.823Z,95681
2023-09-17T08:47:01.535Z,95672
2023-09-17T08:48:10.252Z,95674
2023-09-17T08:49:19.845Z,95675
2023-09-17T08:50:29.525Z,95674
2023-09-17T08:51:39.214Z,95667
2023-09-17T08:52:48.075Z,95669
2023-09-17T08:53:56.852Z,95674
2023-09-17T08:55:06.657Z,95675
2023-09-17T08:56:16.377Z,95673
2023-09-17T08:57:26.074Z,95672
2023-09-17T08:58:35.807Z,95676
2023-09-17T08:59:45.469Z,95677
2023-09-17T09:00:54.179Z,95679
2023-09-17T09:02:03.931Z,95684
2023-09-17T09:03:13.651Z,95683
2023-09-17T09:04:23.197Z,95677
2023-09-17T09:05:31.890Z,95681
2023-09-17T09:06:41.639Z,95685
2023-09-17T09:07:51.364Z,95685
2023-09-17T09:09:01.029Z,95688
2023-09-17T09:10:10.754Z,95688
2023-09-17T09:11:20.389Z,95688
2023-09-17T09:12:29.157Z,95687
2023-09-17T09:13:37.909Z,95683
2023-09-17T09:14:46.545Z,95684
2023-09-17T09:15:56.329Z,95683
2023-09-17T09:17:06.100Z,95687
2023-09-17T09:18:15.738Z,95684
2023-09-17T09:19:25.440Z,95682
2023-09-17T09:20:35.125Z,95683
2023-09-17T09:21:43.799Z,95674
2023-09-17T09:22:53.526Z,95679
2023-09-17T09:24:03.188Z,95683
2023-09-17T09:25:12.961Z,95681
2023-09-17T09:26:22.664Z,95683
2023-09-17T09:27:31.338Z,95678
2023-09-17T09:28:41.079Z,95681
2023-09-17T09:29:50.825Z,95678
2023-09-17T09:31:00.541Z,95680
2023-09-17T09:32:09.313Z,95678
2023-09-17T09:33:18.969Z,95679
2023-09-17T09:34:28.690Z,95676
2023-09-17T09:35:38.386Z,95675
2023-09-17T09:36:47.083Z,95678
2023-09-17T09:37:55.761Z,95676
2023-09-17T09:39:04.490Z,95680
2023-09-17T09:40:13.128Z,95676
2023-09-17T09:41:22.845Z,95677
2023-09-17T09:42:31.562Z,95681
2023-09-17T09:43:40.228Z,95685
2023-09-17T09:44:48.923Z,95683
2023-09-17T09:45:58.633Z,95683
2023-09-17T09:47:08.337Z,95679
2023-09-17T09:48:16.996Z,95679
2023-09-17T09:49:26.667Z,95680
2023-09-17T09:50:37.379Z,95674
2023-09-17T09:51:47.106Z,95677
2023-09-17T09:53:00.925Z,95677
2023-09-17T09:54:09.591Z,95678
2023-09-17T09:55:19.373Z,95678
2023-09-17T09:56:29.060Z,95680
2023-09-17T09:57:39.513Z,95680
2023-09-17T09:58:46.470Z,95683
2023-09-17T09:59:56.164Z,95685
2023-09-17T10:01:04.904Z,95685
2023-09-17T10:02:14.702Z,95682
2023-09-17T10:03:23.346Z,95681
2023-09-17T10:04:33.180Z,95683
2023-09-17T10:05:42.963Z,95680
2023-09-17T10:06:51.698Z,95675
2023-09-17T10:08:00.428Z,95680
2023-09-17T10:09:10.081Z,95682
2023-09-17T10:10:19.782Z,95677
2023-09-17T10:11:29.480Z,95678
2023-09-17T10:12:39.227Z,95673
2023-09-17T10:13:47.900Z,95675
2023-09-17T10:14:57.692Z,95678
2023-09-17T10:16:06.407Z,95674
2023-09-17T10:17:15.113Z,95680
2023-09-17T10:18:23.824Z,95675
2023-09-17T10:19:31.545Z,95675
2023-09-17T10:20:40.195Z,95672
2023-09-17T10:21:49.958Z,95674
2023-09-17T10:22:58.814Z,95679
2023-09-17T10:24:08.398Z,95676
2023-09-17T10:25:17.075Z,95679
2023-09-17T10:26:26.758Z,95677
2023-09-17T10:27:36.481Z,95677
2023-09-17T10:28:45.166Z,95669
2023-09-17T10:29:54.900Z,95667
2023-09-17T10:31:05.300Z,95670
2023-09-17T10:32:15.018Z,95663
2023-09-17T10:33:24.740Z,95661
2023-09-17T10:34:33.506Z,95667
2023-09-17T10:35:43.068Z,95665
2023-09-17T10:36:52.756Z,95669
2023-09-17T10:38:01.474Z,95665
2023-09-17T10:39:11.104Z,95668
2023-09-17T10:40:20.798Z,95667
2023-09-17T10:41:30.487Z,95670
2023-09-17T10:42:41.212Z,95670
2023-09-17T10:43:50.296Z,95673
2023-09-17T10:44:58.716Z,95670
2023-09-17T10:46:08.477Z,95670
2023-09-17T10:47:17.228Z,95669
2023-09-17T10:48:26.816Z,95667
2023-09-17T10:49:36.516Z,95666
2023-09-17T10:50:46.366Z,95661
2023-09-17T10:51:56.016Z,95661
2023-09-17T10:53:05.714Z,95655
2023-09-17T10:54:13.344Z,95654
2023-09-17T10:55:23.043Z,95659
2023-09-17T10:56:30.724Z,95655
2023-09-17T10:57:40.420Z,95658
2023-09-17T10:58:49.129Z,95657
2023-09-17T10:59:57.897Z,95655
2023-09-17T11:01:07.624Z,95649
2023-09-17T11:02:16.490Z,95645
2023-09-17T11:03:25.227Z,95644
2023-09-17T11:04:34.838Z,95645
2023-09-17T11:05:44.560Z,95642
2023-09-17T11:06:54.305Z,95641
2023-09-17T11:08:04.055Z,95640
2023-09-17T11:09:12.719Z,95639
2023-09-17T11:10:31.585Z,95639
2023-09-17T11:11:33.116Z,95636
2023-09-17T11:12:42.887Z,95635
2023-09-17T11:13:52.771Z,95636
2023-09-17T11:15:01.384Z,95633
2023-09-17T11:16:10.189Z,95634
2023-09-17T11:17:19.888Z,95630
2023-09-17T11:18:29.677Z,95632
2023-09-17T11:19:39.396Z,95634
2023-09-17T11:20:48.041Z,95630
2023-09-17T11:21:56.879Z,95629
2023-09-17T11:23:06.583Z,95629
2023-09-17T11:24:15.218Z,95627
2023-09-17T11:25:23.884Z,95624
2023-09-17T11:26:32.646Z,95628
2023-09-17T11:27:42.369Z,95627
2023-09-17T11:28:52.102Z,95628
2023-09-17T11:30:01.788Z,95631
2023-09-17T11:31:11.673Z,95626
2023-09-17T11:32:21.158Z,95627
2023-09-17T11:33:30.927Z,95625
2023-09-17T11:34:43.469Z,95630
2023-09-17T11:35:53.070Z,95627
2023-09-17T11:37:01.879Z,95625
2023-09-17T11:38:11.554Z,95625
2023-09-17T11:39:20.171Z,95629
2023-09-17T11:40:29.861Z,95629
2023-09-17T11:41:39.537Z,95627
2023-09-17T11:42:48.215Z,95629
2023-09-17T11:43:57.979Z,95628
2023-09-17T11:45:06.728Z,95628
2023-09-17T11:46:16.414Z,95627
2023-09-17T11:47:25.186Z,95630
2023-09-17T11:48:34.590Z,95628
2023-09-17T11:49:43.473Z,95625
2023-09-17T11:50:52.146Z,95628
2023-09-17T11:52:01.026Z,95625
2023-09-17T11:53:10.716Z,95623
2023-09-17T11:54:19.337Z,95622
2023-09-17T11:55:29.026Z,95619
2023-09-17T11:56:37.698Z,95621
2023-09-17T11:57:47.416Z,95619
2023-09-17T11:58:57.121Z,95614
2023-09-17T12:00:06.774Z,95612
2023-09-17T12:01:16.503Z,95615
2023-09-17T12:02:26.292Z,95612
2023-09-17T12:03:34.889Z,95614
2023-09-17T12:04:45.308Z,95614
2023-09-17T12:05:54.265Z,95608
2023-09-17T12:07:03.936Z,95611
2023-09-17T12:08:13.685Z,95608
2023-09-17T12:09:22.337Z,95609
2023-09-17T12:10:32.034Z,95615
2023-09-17T12:11:41.709Z,95613
2023-09-17T12:12:51.380Z,95615
2023-09-17T12:14:01.141Z,95610
2023-09-17T12:15:10.907Z,95617
2023-09-17T12:16:19.530Z,95608
2023-09-17T12:17:29.331Z,95610
2023-09-17T12:18:38.936Z,95604
2023-09-17T12:19:48.598Z,95605
2023-09-17T12:20:58.481Z,95601
2023-09-17T12:22:06.006Z,95609
2023-09-17T12:23:15.728Z,95603
2023-09-17T12:24:24.669Z,95605
2023-09-17T12:25:33.206Z,95608
2023-09-17T12:26:42.926Z,95603
2023-09-17T12:27:51.672Z,95607
2023-09-17T12:29:00.375Z,95604
2023-09-17T12:30:11.024Z,95604
2023-09-17T12:31:20.709Z,95599
2023-09-17T12:32:30.423Z,95600
2023-09-17T12:33:40.119Z,95597
2023-09-17T12:34:48.817Z,95598
2023-09-17T12:35:58.622Z,95596
2023-09-17T12:37:06.314Z,95605
2023-09-17T12:38:16.521Z,95600
2023-09-17T12:39:26.273Z,95599
2023-09-17T12:40:34.001Z,95598
2023-09-17T12:41:42.708Z,95598
2023-09-17T12:42:53.445Z,95593
2023-09-17T12:44:01.335Z,95596
2023-09-17T12:45:11.166Z,95593
2023-09-17T12:46:19.931Z,95590
2023-09-17T12:47:29.655Z,95590
2023-09-17T12:48:39.405Z,95588
2023-09-17T12:49:49.150Z,95586
2023-09-17T12:51:00.938Z,95590
2023-09-17T12:52:08.514Z,95589
2023-09-17T12:53:18.229Z,95589
2023-09-17T12:54:27.926Z,95584
2023-09-17T12:55:37.761Z,95581
2023-09-17T12:56:46.294Z,95584
2023-09-17T12:57:55.961Z,95582
2023-09-17T12:59:04.870Z,95584
2023-09-17T13:00:14.474Z,95576
2023-09-17T13:01:23.306Z,95576
2023-09-17T13:02:32.980Z,95575
2023-09-17T13:03:42.762Z,95572
2023-09-17T13:04:51.411Z,95572
2023-09-17T13:06:00.158Z,95573
2023-09-17T13:07:09.834Z,95563
2023-09-17T13:08:18.579Z,95569
2023-09-17T13:09:28.248Z,95568
2023-09-17T13:10:38.014Z,95569
2023-09-17T13:11:47.766Z,95567
2023-09-17T13:12:57.459Z,95561
2023-09-17T13:14:07.318Z,95559
2023-09-17T13:15:17.052Z,95563
2023-09-17T13:16:26.755Z,95558
2023-09-17T13:17:35.446Z,95560
2023-09-17T13:18:44.089Z,95560
2023-09-17T13:19:53.881Z,95557
2023-09-17T13:21:02.596Z,95558
2023-09-17T13:22:12.319Z,95553
2023-09-17T13:23:22.078Z,95552
2023-09-17T13:24:31.764Z,95553
2023-09-17T13:25:41.764Z,95549
2023-09-17T13:26:51.457Z,95549
2023-09-17T13:28:06.748Z,95547
2023-09-17T13:29:16.421Z,95545
2023-09-17T13:30:26.251Z,95543
2023-09-17T13:31:36.148Z,95544
2023-09-17T13:32:45.839Z,95540
2023-09-17T13:33:55.507Z,95543
2023-09-17T13:35:04.184Z,95543
2023-09-17T13:36:13.934Z,95540
2023-09-17T13:37:23.686Z,95539
2023-09-17T13:38:33.440Z,95535
2023-09-17T13:39:42.510Z,95536
2023-09-17T13:40:52.153Z,95538
2023-09-17T13:42:01.968Z,95531
2023-09-17T13:43:11.596Z,95526
2023-09-17T13:44:21.274Z,95528
2023-09-17T13:45:30.000Z,95528
2023-09-17T13:46:39.888Z,95529
2023-09-17T13:47:48.607Z,95532
2023-09-17T13:48:58.402Z,95532
2023-09-17T13:50:07.212Z,95528
2023-09-17T13:51:16.946Z,95526
2023-09-17T13:52:26.768Z,95529
2023-09-17T13:53:36.466Z,95533
2023-09-17T13:54:46.244Z,95529
2023-09-17T13:55:55.967Z,95531
2023-09-17T13:57:05.664Z,95528
2023-09-17T13:58:14.305Z,95527
2023-09-17T13:59:23.070Z,95524
2023-09-17T14:00:32.779Z,95530
2023-09-17T14:01:42.555Z,95528
2023-09-17T14:02:52.198Z,95531
2023-09-17T14:04:03.117Z,95531
2023-09-17T14:05:11.642Z,95531
2023-09-17T14:06:20.302Z,95529
2023-09-17T14:07:28.991Z,95532
2023-09-17T14:08:38.665Z,95529
2023-09-17T14:09:48.364Z,95529
2023-09-17T14:10:58.135Z,95530
2023-09-17T14:12:05.758Z,95529
2023-09-17T14:13:14.495Z,95530
2023-09-17T14:14:24.274Z,95531
2023-09-17T14:15:31.972Z,95529
2023-09-17T14:16:41.685Z,95529
2023-09-17T14:17:50.399Z,95529
2023-09-17T14:18:59.070Z,95524
2023-09-17T14:20:08.782Z,95526
2023-09-17T14:21:18.429Z,95524
2023-09-17T14:22:28.271Z,95525
2023-09-17T14:23:37.967Z,95522
2023-09-17T14:24:47.641Z,95523
2023-09-17T14:25:56.380Z,95516
2023-09-17T14:27:06.065Z,95521
2023-09-17T14:28:15.726Z,95518
2023-09-17T14:29:25.454Z,95518
2023-09-17T14:30:35.155Z,95516
2023-09-17T14:31:45.278Z,95519
2023-09-17T14:32:54.975Z,95513
2023-09-17T14:34:03.611Z,95515
2023-09-17T14:35:13.304Z,95515
2023-09-17T14:36:22.984Z,95510
2023-09-17T14:37:32.775Z,95516
2023-09-17T14:38:42.465Z,95519
2023-09-17T14:39:52.147Z,95511
2023-09-17T14:41:00.873Z,95517
2023-09-17T14:42:10.530Z,95517
2023-09-17T14:43:19.275Z,95515
2023-09-17T14:44:27.979Z,95516
2023-09-17T14:45:36.667Z,95517
2023-09-17T14:46:45.411Z,95515
2023-09-17T14:47:55.131Z,95516
2023-09-17T14:49:02.806Z,95514
2023-09-17T14:50:12.503Z,95516
2023-09-17T14:51:22.220Z,95519
2023-09-17T14:52:31.952Z,95514